sensor_id;sensor_type;location;lat;lon;timestamp;P1;durP1;ratioP1;P2;durP2;ratioP2
23614;SDS011;11985;49.404;7.734;2023-12-20T00:04:09;5.60;;;3.78;;
23614;SDS011;11985;49.404;7.734;2023-12-20T00:09:12;8.55;;;4.50;;
23614;SDS011;11985;49.404;7.734;2023-12-20T00:14:14;5.93;;;3.70;;
23614;SDS011;11985;49.404;7.734;2023-12-20T00:19:16;7.57;;;4.05;;
23614;SDS011;11985;49.404;7.734;2023-12-20T00:24:18;5.60;;;3.45;;
23614;SDS011;11985;49.404;7.734;2023-12-20T00:29:20;6.65;;;4.03;;
23614;SDS011;11985;49.404;7.734;2023-12-20T00:34:22;4.85;;;3.38;;
23614;SDS011;11985;49.404;7.734;2023-12-20T00:39:25;6.25;;;2.97;;
23614;SDS011;11985;49.404;7.734;2023-12-20T00:44:27;5.30;;;3.40;;
23614;SDS011;11985;49.404;7.734;2023-12-20T00:49:31;6.07;;;3.47;;
23614;SDS011;11985;49.404;7.734;2023-12-20T00:54:34;6.22;;;3.40;;
23614;SDS011;11985;49.404;7.734;2023-12-20T00:59:35;6.22;;;3.00;;
23614;SDS011;11985;49.404;7.734;2023-12-20T01:04:37;6.18;;;3.03;;
23614;SDS011;11985;49.404;7.734;2023-12-20T01:09:40;5.55;;;2.83;;
23614;SDS011;11985;49.404;7.734;2023-12-20T01:14:42;8.13;;;3.25;;
23614;SDS011;11985;49.404;7.734;2023-12-20T01:19:43;4.90;;;3.08;;
23614;SDS011;11985;49.404;7.734;2023-12-20T01:24:46;4.80;;;2.95;;
23614;SDS011;11985;49.404;7.734;2023-12-20T01:29:48;6.00;;;3.65;;
23614;SDS011;11985;49.404;7.734;2023-12-20T01:34:49;5.85;;;3.38;;
23614;SDS011;11985;49.404;7.734;2023-12-20T01:39:55;5.40;;;3.22;;
23614;SDS011;11985;49.404;7.734;2023-12-20T01:44:57;5.57;;;3.28;;
23614;SDS011;11985;49.404;7.734;2023-12-20T01:49:58;8.57;;;3.75;;
23614;SDS011;11985;49.404;7.734;2023-12-20T02:00:13;6.38;;;3.63;;
23614;SDS011;11985;49.404;7.734;2023-12-20T02:05:16;7.57;;;4.00;;
23614;SDS011;11985;49.404;7.734;2023-12-20T02:10:22;6.07;;;3.60;;
23614;SDS011;11985;49.404;7.734;2023-12-20T02:15:24;8.02;;;4.25;;
23614;SDS011;11985;49.404;7.734;2023-12-20T02:20:26;8.07;;;3.92;;
23614;SDS011;11985;49.404;7.734;2023-12-20T02:25:29;8.55;;;4.20;;
23614;SDS011;11985;49.404;7.734;2023-12-20T02:30:30;6.15;;;3.72;;
23614;SDS011;11985;49.404;7.734;2023-12-20T02:35:32;7.18;;;4.55;;
23614;SDS011;11985;49.404;7.734;2023-12-20T02:40:35;8.70;;;5.13;;
23614;SDS011;11985;49.404;7.734;2023-12-20T02:45:36;9.48;;;5.13;;
23614;SDS011;11985;49.404;7.734;2023-12-20T02:50:38;8.88;;;5.53;;
23614;SDS011;11985;49.404;7.734;2023-12-20T02:55:41;8.05;;;5.45;;
23614;SDS011;11985;49.404;7.734;2023-12-20T03:00:43;10.40;;;5.88;;
23614;SDS011;11985;49.404;7.734;2023-12-20T03:05:44;11.35;;;6.80;;
23614;SDS011;11985;49.404;7.734;2023-12-20T03:10:48;12.60;;;7.05;;
23614;SDS011;11985;49.404;7.734;2023-12-20T03:15:50;13.23;;;6.80;;
23614;SDS011;11985;49.404;7.734;2023-12-20T03:20:51;13.90;;;7.82;;
23614;SDS011;11985;49.404;7.734;2023-12-20T03:25:54;17.17;;;9.05;;
23614;SDS011;11985;49.404;7.734;2023-12-20T03:30:56;19.55;;;8.57;;
23614;SDS011;11985;49.404;7.734;2023-12-20T03:35:57;15.65;;;9.23;;
23614;SDS011;11985;49.404;7.734;2023-12-20T03:41:00;25.05;;;9.85;;
23614;SDS011;11985;49.404;7.734;2023-12-20T03:46:02;24.27;;;9.90;;
23614;SDS011;11985;49.404;7.734;2023-12-20T03:51:04;44.58;;;10.68;;
23614;SDS011;11985;49.404;7.734;2023-12-20T03:56:07;87.22;;;12.80;;
23614;SDS011;11985;49.404;7.734;2023-12-20T04:01:09;83.50;;;12.15;;
23614;SDS011;11985;49.404;7.734;2023-12-20T04:06:16;92.15;;;12.80;;
23614;SDS011;11985;49.404;7.734;2023-12-20T04:11:20;96.80;;;12.73;;
23614;SDS011;11985;49.404;7.734;2023-12-20T04:16:22;127.93;;;12.88;;
23614;SDS011;11985;49.404;7.734;2023-12-20T04:21:24;69.57;;;12.65;;
23614;SDS011;11985;49.404;7.734;2023-12-20T04:26:27;77.97;;;12.30;;
23614;SDS011;11985;49.404;7.734;2023-12-20T04:31:29;107.50;;;14.27;;
23614;SDS011;11985;49.404;7.734;2023-12-20T04:36:31;38.10;;;10.82;;
23614;SDS011;11985;49.404;7.734;2023-12-20T04:41:34;27.10;;;11.80;;
23614;SDS011;11985;49.404;7.734;2023-12-20T04:46:35;25.70;;;10.20;;
23614;SDS011;11985;49.404;7.734;2023-12-20T04:51:37;28.25;;;10.13;;
23614;SDS011;11985;49.404;7.734;2023-12-20T04:56:40;20.45;;;10.45;;
23614;SDS011;11985;49.404;7.734;2023-12-20T05:01:42;20.00;;;9.50;;
23614;SDS011;11985;49.404;7.734;2023-12-20T05:06:43;18.75;;;10.25;;
23614;SDS011;11985;49.404;7.734;2023-12-20T05:11:46;18.10;;;10.18;;
23614;SDS011;11985;49.404;7.734;2023-12-20T05:16:48;18.45;;;11.05;;
23614;SDS011;11985;49.404;7.734;2023-12-20T05:21:49;16.40;;;9.80;;
23614;SDS011;11985;49.404;7.734;2023-12-20T05:26:53;17.48;;;9.27;;
23614;SDS011;11985;49.404;7.734;2023-12-20T05:31:54;18.00;;;9.63;;
23614;SDS011;11985;49.404;7.734;2023-12-20T05:36:57;19.02;;;8.93;;
23614;SDS011;11985;49.404;7.734;2023-12-20T05:42:00;16.65;;;9.43;;
23614;SDS011;11985;49.404;7.734;2023-12-20T05:47:02;14.88;;;8.45;;
23614;SDS011;11985;49.404;7.734;2023-12-20T05:52:03;12.68;;;7.85;;
23614;SDS011;11985;49.404;7.734;2023-12-20T05:57:07;9.45;;;6.18;;
23614;SDS011;11985;49.404;7.734;2023-12-20T06:02:08;16.48;;;4.20;;
23614;SDS011;11985;49.404;7.734;2023-12-20T06:07:11;7.78;;;3.88;;
23614;SDS011;11985;49.404;7.734;2023-12-20T06:12:14;8.18;;;3.45;;
23614;SDS011;11985;49.404;7.734;2023-12-20T06:17:16;6.57;;;3.13;;
23614;SDS011;11985;49.404;7.734;2023-12-20T06:22:17;7.82;;;2.80;;
23614;SDS011;11985;49.404;7.734;2023-12-20T06:27:20;5.97;;;2.70;;
23614;SDS011;11985;49.404;7.734;2023-12-20T06:32:22;12.00;;;2.83;;
23614;SDS011;11985;49.404;7.734;2023-12-20T06:37:24;9.65;;;2.20;;
23614;SDS011;11985;49.404;7.734;2023-12-20T06:42:27;5.40;;;2.25;;
23614;SDS011;11985;49.404;7.734;2023-12-20T06:47:29;4.22;;;2.22;;
23614;SDS011;11985;49.404;7.734;2023-12-20T06:52:30;9.30;;;2.55;;
23614;SDS011;11985;49.404;7.734;2023-12-20T06:57:33;7.05;;;2.83;;
23614;SDS011;11985;49.404;7.734;2023-12-20T07:02:36;4.60;;;2.13;;
23614;SDS011;11985;49.404;7.734;2023-12-20T07:07:37;10.27;;;3.83;;
23614;SDS011;11985;49.404;7.734;2023-12-20T07:12:40;9.88;;;3.85;;
23614;SDS011;11985;49.404;7.734;2023-12-20T07:17:42;10.48;;;3.30;;
23614;SDS011;11985;49.404;7.734;2023-12-20T07:22:44;10.95;;;3.10;;
23614;SDS011;11985;49.404;7.734;2023-12-20T07:27:48;8.45;;;3.17;;
23614;SDS011;11985;49.404;7.734;2023-12-20T07:32:50;7.22;;;2.50;;
23614;SDS011;11985;49.404;7.734;2023-12-20T07:37:52;14.20;;;6.30;;
23614;SDS011;11985;49.404;7.734;2023-12-20T07:42:55;7.20;;;3.05;;
23614;SDS011;11985;49.404;7.734;2023-12-20T07:47:58;7.30;;;2.63;;
23614;SDS011;11985;49.404;7.734;2023-12-20T07:53:00;5.07;;;2.38;;
23614;SDS011;11985;49.404;7.734;2023-12-20T07:58:03;9.75;;;2.80;;
23614;SDS011;11985;49.404;7.734;2023-12-20T08:03:05;9.05;;;2.88;;
23614;SDS011;11985;49.404;7.734;2023-12-20T08:08:07;17.92;;;3.08;;
23614;SDS011;11985;49.404;7.734;2023-12-20T08:13:10;13.73;;;3.40;;
23614;SDS011;11985;49.404;7.734;2023-12-20T08:18:11;17.67;;;3.85;;
23614;SDS011;11985;49.404;7.734;2023-12-20T08:23:13;12.82;;;2.95;;
23614;SDS011;11985;49.404;7.734;2023-12-20T08:28:16;18.35;;;3.60;;
23614;SDS011;11985;49.404;7.734;2023-12-20T08:33:18;35.28;;;10.93;;
23614;SDS011;11985;49.404;7.734;2023-12-20T08:38:19;19.33;;;3.75;;
23614;SDS011;11985;49.404;7.734;2023-12-20T08:43:22;10.57;;;3.50;;
23614;SDS011;11985;49.404;7.734;2023-12-20T08:48:24;16.77;;;4.35;;
23614;SDS011;11985;49.404;7.734;2023-12-20T08:53:25;13.48;;;3.90;;
23614;SDS011;11985;49.404;7.734;2023-12-20T08:58:28;14.13;;;3.80;;
23614;SDS011;11985;49.404;7.734;2023-12-20T09:03:30;12.88;;;3.72;;
23614;SDS011;11985;49.404;7.734;2023-12-20T09:08:31;14.43;;;3.13;;
23614;SDS011;11985;49.404;7.734;2023-12-20T09:13:35;12.88;;;3.85;;
23614;SDS011;11985;49.404;7.734;2023-12-20T09:18:37;17.20;;;4.07;;
23614;SDS011;11985;49.404;7.734;2023-12-20T09:23:38;8.70;;;3.88;;
23614;SDS011;11985;49.404;7.734;2023-12-20T09:28:41;13.75;;;4.30;;
23614;SDS011;11985;49.404;7.734;2023-12-20T09:33:43;7.72;;;3.65;;
23614;SDS011;11985;49.404;7.734;2023-12-20T09:38:45;17.00;;;5.13;;
23614;SDS011;11985;49.404;7.734;2023-12-20T09:43:48;12.48;;;4.93;;
23614;SDS011;11985;49.404;7.734;2023-12-20T09:48:50;12.75;;;4.03;;
23614;SDS011;11985;49.404;7.734;2023-12-20T09:53:51;18.88;;;4.85;;
23614;SDS011;11985;49.404;7.734;2023-12-20T09:58:57;18.47;;;4.80;;
23614;SDS011;11985;49.404;7.734;2023-12-20T10:03:59;13.35;;;4.65;;
23614;SDS011;11985;49.404;7.734;2023-12-20T10:09:02;14.00;;;4.38;;
23614;SDS011;11985;49.404;7.734;2023-12-20T10:14:07;18.30;;;5.18;;
23614;SDS011;11985;49.404;7.734;2023-12-20T10:19:08;11.50;;;4.53;;
23614;SDS011;11985;49.404;7.734;2023-12-20T10:24:10;20.70;;;4.95;;
23614;SDS011;11985;49.404;7.734;2023-12-20T10:29:19;12.13;;;4.75;;
23614;SDS011;11985;49.404;7.734;2023-12-20T10:34:21;19.67;;;4.82;;
23614;SDS011;11985;49.404;7.734;2023-12-20T10:39:22;13.02;;;4.70;;
23614;SDS011;11985;49.404;7.734;2023-12-20T10:44:26;17.30;;;5.20;;
23614;SDS011;11985;49.404;7.734;2023-12-20T10:49:27;17.70;;;5.45;;
23614;SDS011;11985;49.404;7.734;2023-12-20T10:54:31;10.57;;;3.95;;
23614;SDS011;11985;49.404;7.734;2023-12-20T10:59:36;16.40;;;5.60;;
23614;SDS011;11985;49.404;7.734;2023-12-20T11:04:40;19.50;;;4.90;;
23614;SDS011;11985;49.404;7.734;2023-12-20T11:09:50;15.63;;;5.25;;
23614;SDS011;11985;49.404;7.734;2023-12-20T11:15:01;14.25;;;5.20;;
23614;SDS011;11985;49.404;7.734;2023-12-20T11:20:08;17.17;;;5.03;;
23614;SDS011;11985;49.404;7.734;2023-12-20T11:25:12;12.05;;;4.82;;
23614;SDS011;11985;49.404;7.734;2023-12-20T11:30:15;20.10;;;5.05;;
23614;SDS011;11985;49.404;7.734;2023-12-20T11:35:17;12.45;;;4.70;;
23614;SDS011;11985;49.404;7.734;2023-12-20T11:40:20;12.18;;;3.97;;
23614;SDS011;11985;49.404;7.734;2023-12-20T11:45:26;16.38;;;4.82;;
23614;SDS011;11985;49.404;7.734;2023-12-20T11:50:29;13.57;;;4.47;;
23614;SDS011;11985;49.404;7.734;2023-12-20T11:55:30;16.75;;;3.88;;
23614;SDS011;11985;49.404;7.734;2023-12-20T12:00:33;12.15;;;4.00;;
23614;SDS011;11985;49.404;7.734;2023-12-20T12:05:35;14.35;;;3.75;;
23614;SDS011;11985;49.404;7.734;2023-12-20T12:10:37;15.18;;;3.63;;
23614;SDS011;11985;49.404;7.734;2023-12-20T12:15:40;20.05;;;3.67;;
23614;SDS011;11985;49.404;7.734;2023-12-20T12:20:42;19.27;;;3.45;;
23614;SDS011;11985;49.404;7.734;2023-12-20T12:25:44;13.38;;;3.22;;
23614;SDS011;11985;49.404;7.734;2023-12-20T12:30:57;14.95;;;2.85;;
23614;SDS011;11985;49.404;7.734;2023-12-20T12:35:58;18.55;;;3.42;;
23614;SDS011;11985;49.404;7.734;2023-12-20T12:41:01;8.50;;;3.47;;
23614;SDS011;11985;49.404;7.734;2023-12-20T12:46:04;9.57;;;2.78;;
23614;SDS011;11985;49.404;7.734;2023-12-20T12:51:06;7.93;;;3.42;;
23614;SDS011;11985;49.404;7.734;2023-12-20T12:56:12;13.32;;;4.15;;
23614;SDS011;11985;49.404;7.734;2023-12-20T13:01:16;10.68;;;2.75;;
23614;SDS011;11985;49.404;7.734;2023-12-20T13:06:18;12.98;;;2.60;;
23614;SDS011;11985;49.404;7.734;2023-12-20T13:11:19;13.57;;;2.55;;
23614;SDS011;11985;49.404;7.734;2023-12-20T13:16:22;17.48;;;3.70;;
23614;SDS011;11985;49.404;7.734;2023-12-20T13:21:24;11.52;;;3.03;;
23614;SDS011;11985;49.404;7.734;2023-12-20T13:26:26;11.93;;;2.70;;
23614;SDS011;11985;49.404;7.734;2023-12-20T13:31:36;10.25;;;2.42;;
23614;SDS011;11985;49.404;7.734;2023-12-20T13:36:39;13.20;;;2.28;;
23614;SDS011;11985;49.404;7.734;2023-12-20T13:41:41;8.20;;;2.20;;
23614;SDS011;11985;49.404;7.734;2023-12-20T13:46:44;15.35;;;2.38;;
23614;SDS011;11985;49.404;7.734;2023-12-20T13:51:46;12.60;;;2.97;;
23614;SDS011;11985;49.404;7.734;2023-12-20T13:56:48;11.38;;;2.58;;
23614;SDS011;11985;49.404;7.734;2023-12-20T14:01:51;17.45;;;2.60;;
23614;SDS011;11985;49.404;7.734;2023-12-20T14:06:53;10.13;;;2.20;;
23614;SDS011;11985;49.404;7.734;2023-12-20T14:11:54;22.92;;;2.45;;
23614;SDS011;11985;49.404;7.734;2023-12-20T14:16:57;15.02;;;2.88;;
23614;SDS011;11985;49.404;7.734;2023-12-20T14:21:59;13.93;;;2.85;;
23614;SDS011;11985;49.404;7.734;2023-12-20T14:27:02;34.25;;;9.48;;
23614;SDS011;11985;49.404;7.734;2023-12-20T14:32:05;12.73;;;2.72;;
23614;SDS011;11985;49.404;7.734;2023-12-20T14:37:07;13.40;;;3.00;;
23614;SDS011;11985;49.404;7.734;2023-12-20T14:42:09;14.55;;;2.65;;
23614;SDS011;11985;49.404;7.734;2023-12-20T14:47:15;13.50;;;2.80;;
23614;SDS011;11985;49.404;7.734;2023-12-20T14:52:17;14.27;;;2.72;;
23614;SDS011;11985;49.404;7.734;2023-12-20T14:57:18;16.85;;;2.78;;
23614;SDS011;11985;49.404;7.734;2023-12-20T15:02:21;12.70;;;2.67;;
23614;SDS011;11985;49.404;7.734;2023-12-20T15:07:23;11.10;;;2.65;;
23614;SDS011;11985;49.404;7.734;2023-12-20T15:12:25;5.85;;;2.13;;
23614;SDS011;11985;49.404;7.734;2023-12-20T15:17:28;13.05;;;2.60;;
23614;SDS011;11985;49.404;7.734;2023-12-20T15:22:30;10.45;;;2.70;;
23614;SDS011;11985;49.404;7.734;2023-12-20T15:27:33;9.75;;;2.55;;
23614;SDS011;11985;49.404;7.734;2023-12-20T15:32:38;9.48;;;2.80;;
23614;SDS011;11985;49.404;7.734;2023-12-20T15:37:40;12.77;;;2.55;;
23614;SDS011;11985;49.404;7.734;2023-12-20T15:42:42;22.88;;;3.60;;
23614;SDS011;11985;49.404;7.734;2023-12-20T15:47:46;14.00;;;2.75;;
23614;SDS011;11985;49.404;7.734;2023-12-20T15:52:47;14.05;;;3.10;;
23614;SDS011;11985;49.404;7.734;2023-12-20T15:57:49;10.95;;;3.35;;
23614;SDS011;11985;49.404;7.734;2023-12-20T16:02:52;20.15;;;3.42;;
23614;SDS011;11985;49.404;7.734;2023-12-20T16:07:54;10.68;;;3.75;;
23614;SDS011;11985;49.404;7.734;2023-12-20T16:12:55;12.98;;;3.20;;
23614;SDS011;11985;49.404;7.734;2023-12-20T16:17:58;26.42;;;4.57;;
23614;SDS011;11985;49.404;7.734;2023-12-20T16:23:00;17.80;;;3.92;;
23614;SDS011;11985;49.404;7.734;2023-12-20T16:28:02;17.63;;;4.53;;
23614;SDS011;11985;49.404;7.734;2023-12-20T16:33:05;13.40;;;3.67;;
23614;SDS011;11985;49.404;7.734;2023-12-20T16:38:06;16.65;;;4.10;;
23614;SDS011;11985;49.404;7.734;2023-12-20T16:43:08;14.73;;;3.95;;
23614;SDS011;11985;49.404;7.734;2023-12-20T16:48:11;12.82;;;3.53;;
23614;SDS011;11985;49.404;7.734;2023-12-20T16:53:13;9.57;;;3.33;;
23614;SDS011;11985;49.404;7.734;2023-12-20T16:58:15;10.82;;;3.20;;
23614;SDS011;11985;49.404;7.734;2023-12-20T17:03:19;18.90;;;3.88;;
23614;SDS011;11985;49.404;7.734;2023-12-20T17:08:24;14.88;;;4.85;;
23614;SDS011;11985;49.404;7.734;2023-12-20T17:13:26;19.38;;;4.60;;
23614;SDS011;11985;49.404;7.734;2023-12-20T17:18:29;14.13;;;3.78;;
23614;SDS011;11985;49.404;7.734;2023-12-20T17:23:31;11.70;;;3.92;;
23614;SDS011;11985;49.404;7.734;2023-12-20T17:28:32;16.63;;;4.18;;
23614;SDS011;11985;49.404;7.734;2023-12-20T17:33:35;21.95;;;3.75;;
23614;SDS011;11985;49.404;7.734;2023-12-20T17:38:37;12.60;;;3.90;;
23614;SDS011;11985;49.404;7.734;2023-12-20T17:43:39;18.80;;;4.43;;
23614;SDS011;11985;49.404;7.734;2023-12-20T17:48:43;15.45;;;4.65;;
23614;SDS011;11985;49.404;7.734;2023-12-20T17:53:45;14.20;;;4.38;;
23614;SDS011;11985;49.404;7.734;2023-12-20T17:58:47;22.08;;;5.38;;
23614;SDS011;11985;49.404;7.734;2023-12-20T18:03:50;13.88;;;4.80;;
23614;SDS011;11985;49.404;7.734;2023-12-20T18:08:51;25.23;;;5.38;;
23614;SDS011;11985;49.404;7.734;2023-12-20T18:13:53;13.60;;;3.92;;
23614;SDS011;11985;49.404;7.734;2023-12-20T18:18:56;9.90;;;4.13;;
23614;SDS011;11985;49.404;7.734;2023-12-20T18:23:58;17.70;;;5.30;;
23614;SDS011;11985;49.404;7.734;2023-12-20T18:29:01;17.73;;;6.13;;
23614;SDS011;11985;49.404;7.734;2023-12-20T18:34:05;16.77;;;5.95;;
23614;SDS011;11985;49.404;7.734;2023-12-20T18:39:06;14.32;;;5.57;;
23614;SDS011;11985;49.404;7.734;2023-12-20T18:44:08;26.80;;;6.90;;
23614;SDS011;11985;49.404;7.734;2023-12-20T18:49:11;24.27;;;5.78;;
23614;SDS011;11985;49.404;7.734;2023-12-20T18:54:13;17.73;;;5.85;;
23614;SDS011;11985;49.404;7.734;2023-12-20T18:59:14;16.17;;;5.18;;
23614;SDS011;11985;49.404;7.734;2023-12-20T19:04:18;12.13;;;4.63;;
23614;SDS011;11985;49.404;7.734;2023-12-20T19:09:20;20.23;;;5.15;;
23614;SDS011;11985;49.404;7.734;2023-12-20T19:14:22;12.63;;;5.65;;
23614;SDS011;11985;49.404;7.734;2023-12-20T19:19:25;16.23;;;4.57;;
23614;SDS011;11985;49.404;7.734;2023-12-20T19:24:26;16.25;;;5.57;;
23614;SDS011;11985;49.404;7.734;2023-12-20T19:29:28;11.57;;;5.03;;
23614;SDS011;11985;49.404;7.734;2023-12-20T19:34:31;14.05;;;4.70;;
23614;SDS011;11985;49.404;7.734;2023-12-20T19:39:32;10.55;;;5.45;;
23614;SDS011;11985;49.404;7.734;2023-12-20T19:44:35;13.90;;;6.18;;
23614;SDS011;11985;49.404;7.734;2023-12-20T19:49:38;18.08;;;6.60;;
23614;SDS011;11985;49.404;7.734;2023-12-20T19:54:40;17.23;;;6.10;;
23614;SDS011;11985;49.404;7.734;2023-12-20T19:59:43;24.23;;;7.03;;
23614;SDS011;11985;49.404;7.734;2023-12-20T20:04:46;15.02;;;7.05;;
23614;SDS011;11985;49.404;7.734;2023-12-20T20:09:48;15.77;;;7.22;;
23614;SDS011;11985;49.404;7.734;2023-12-20T20:14:50;14.88;;;6.78;;
23614;SDS011;11985;49.404;7.734;2023-12-20T20:19:53;21.70;;;7.35;;
23614;SDS011;11985;49.404;7.734;2023-12-20T20:24:55;19.50;;;6.78;;
23614;SDS011;11985;49.404;7.734;2023-12-20T20:29:56;16.95;;;6.80;;
23614;SDS011;11985;49.404;7.734;2023-12-20T20:34:59;16.33;;;7.65;;
23614;SDS011;11985;49.404;7.734;2023-12-20T20:40:01;14.70;;;6.78;;
23614;SDS011;11985;49.404;7.734;2023-12-20T20:45:04;18.20;;;6.38;;
23614;SDS011;11985;49.404;7.734;2023-12-20T20:50:08;11.88;;;6.32;;
23614;SDS011;11985;49.404;7.734;2023-12-20T20:55:10;12.32;;;6.07;;
23614;SDS011;11985;49.404;7.734;2023-12-20T21:00:12;10.15;;;5.13;;
23614;SDS011;11985;49.404;7.734;2023-12-20T21:05:17;9.48;;;3.85;;
23614;SDS011;11985;49.404;7.734;2023-12-20T21:10:19;11.52;;;5.15;;
23614;SDS011;11985;49.404;7.734;2023-12-20T21:15:20;8.98;;;4.80;;
23614;SDS011;11985;49.404;7.734;2023-12-20T21:20:23;9.23;;;4.60;;
23614;SDS011;11985;49.404;7.734;2023-12-20T21:25:25;10.77;;;4.72;;
23614;SDS011;11985;49.404;7.734;2023-12-20T21:30:27;6.80;;;4.38;;
23614;SDS011;11985;49.404;7.734;2023-12-20T21:35:34;6.05;;;3.80;;
23614;SDS011;11985;49.404;7.734;2023-12-20T21:40:36;7.15;;;4.00;;
23614;SDS011;11985;49.404;7.734;2023-12-20T21:45:37;5.88;;;3.85;;
23614;SDS011;11985;49.404;7.734;2023-12-20T21:50:40;5.55;;;3.45;;
23614;SDS011;11985;49.404;7.734;2023-12-20T21:55:42;7.85;;;3.40;;
23614;SDS011;11985;49.404;7.734;2023-12-20T22:00:44;5.65;;;2.88;;
23614;SDS011;11985;49.404;7.734;2023-12-20T22:05:47;6.15;;;3.03;;
23614;SDS011;11985;49.404;7.734;2023-12-20T22:10:49;3.97;;;2.83;;
23614;SDS011;11985;49.404;7.734;2023-12-20T22:15:51;5.38;;;3.33;;
23614;SDS011;11985;49.404;7.734;2023-12-20T22:20:54;5.60;;;3.90;;
23614;SDS011;11985;49.404;7.734;2023-12-20T22:25:55;7.82;;;4.03;;
23614;SDS011;11985;49.404;7.734;2023-12-20T22:30:57;9.73;;;3.78;;
23614;SDS011;11985;49.404;7.734;2023-12-20T22:36:00;10.45;;;4.15;;
23614;SDS011;11985;49.404;7.734;2023-12-20T22:41:02;6.53;;;3.67;;
23614;SDS011;11985;49.404;7.734;2023-12-20T22:46:04;6.72;;;4.03;;
23614;SDS011;11985;49.404;7.734;2023-12-20T22:51:07;9.48;;;3.80;;
23614;SDS011;11985;49.404;7.734;2023-12-20T22:56:09;3.70;;;2.58;;
23614;SDS011;11985;49.404;7.734;2023-12-20T23:01:11;5.97;;;3.05;;
23614;SDS011;11985;49.404;7.734;2023-12-20T23:06:14;8.98;;;2.80;;
23614;SDS011;11985;49.404;7.734;2023-12-20T23:11:15;3.53;;;2.45;;
23614;SDS011;11985;49.404;7.734;2023-12-20T23:16:17;5.30;;;2.83;;
23614;SDS011;11985;49.404;7.734;2023-12-20T23:21:20;6.72;;;3.08;;
23614;SDS011;11985;49.404;7.734;2023-12-20T23:26:22;6.57;;;2.85;;
23614;SDS011;11985;49.404;7.734;2023-12-20T23:31:23;3.92;;;2.50;;
23614;SDS011;11985;49.404;7.734;2023-12-20T23:36:27;3.22;;;1.92;;
23614;SDS011;11985;49.404;7.734;2023-12-20T23:41:29;3.30;;;1.70;;
23614;SDS011;11985;49.404;7.734;2023-12-20T23:46:30;3.15;;;1.52;;
23614;SDS011;11985;49.404;7.734;2023-12-20T23:51:33;3.85;;;1.73;;
23614;SDS011;11985;49.404;7.734;2023-12-20T23:56:35;1.95;;;1.33;;
